Time;durP1;ratioP1;P1;durP2;ratioP2;P2;SDS_P1;SDS_P2;PMS_P1;PMS_P2;Temp;Humidity;BMP_temperature;BMP_pressure;BME280_temperature;BME280_humidity;BME280_pressure;Samples;Min_cycle;Max_cycle;Signal;HPM_P1;HPM_P2
2024/01/04 00:00:01;;;;;;;3.03;1.85;;;;;;;;;;4881204;29;20074;-69
2024/01/04 00:02:30;;;;;;;2.88;1.98;;;;;;;;;;4880529;29;20024;-70
2024/01/04 00:04:56;;;;;;;3.97;2.10;;;;;;;;;;4890576;29;20103;-67
2024/01/04 00:07:22;;;;;;;6.43;1.80;;;;;;;;;;4898320;29;20044;-70
2024/01/04 00:09:48;;;;;;;3.35;1.90;;;;;;;;;;4899744;29;20040;-70
2024/01/04 00:12:14;;;;;;;3.60;1.88;;;;;;;;;;4899694;29;20028;-71
2024/01/04 00:14:40;;;;;;;5.65;1.80;;;;;;;;;;4899607;29;20044;-70
2024/01/04 00:17:06;;;;;;;3.67;1.90;;;;;;;;;;4899441;29;20061;-71
2024/01/04 00:19:32;;;;;;;3.80;1.90;;;;;;;;;;4898952;29;20378;-71
2024/01/04 00:21:57;;;;;;;6.88;2.03;;;;;;;;;;4899487;29;20116;-71
2024/01/04 00:24:23;;;;;;;5.50;1.70;;;;;;;;;;4899652;29;20092;-71
2024/01/04 00:26:48;;;;;;;6.55;1.90;;;;;;;;;;4899638;29;20082;-71
2024/01/04 00:29:14;;;;;;;3.42;1.88;;;;;;;;;;4899628;29;20363;-71
2024/01/04 00:31:40;;;;;;;2.47;1.70;;;;;;;;;;4899564;29;20036;-70
2024/01/04 00:34:06;;;;;;;3.40;1.95;;;;;;;;;;4899274;29;20028;-70
2024/01/04 00:36:32;;;;;;;3.13;1.50;;;;;;;;;;4899213;29;20446;-71
2024/01/04 00:38:58;;;;;;;4.72;1.70;;;;;;;;;;4899428;29;20209;-70
2024/01/04 00:41:23;;;;;;;2.65;2.00;;;;;;;;;;4899170;29;20456;-70
2024/01/04 00:43:49;;;;;;;1.70;1.50;;;;;;;;;;4899339;29;20509;-70
2024/01/04 00:46:15;;;;;;;2.60;1.75;;;;;;;;;;4899326;29;20025;-70
2024/01/04 00:48:41;;;;;;;2.97;1.83;;;;;;;;;;4899092;29;20415;-69
2024/01/04 00:51:06;;;;;;;3.78;1.65;;;;;;;;;;4899066;29;20477;-71
2024/01/04 00:53:32;;;;;;;3.50;1.50;;;;;;;;;;4898966;29;20031;-70
2024/01/04 00:55:58;;;;;;;3.13;1.80;;;;;;;;;;4899206;29;20024;-71
2024/01/04 00:58:23;;;;;;;1.95;1.63;;;;;;;;;;4899155;29;20382;-70
2024/01/04 01:00:49;;;;;;;1.85;1.65;;;;;;;;;;4899083;29;20043;-70
2024/01/04 01:03:14;;;;;;;5.07;1.90;;;;;;;;;;4898963;29;20040;-70
2024/01/04 01:05:40;;;;;;;1.70;1.60;;;;;;;;;;4898767;29;20537;-70
2024/01/04 01:08:06;;;;;;;2.47;1.77;;;;;;;;;;4898697;29;20112;-70
2024/01/04 01:10:34;;;;;;;5.57;2.20;;;;;;;;;;4898673;29;20056;-70
2024/01/04 01:13:00;;;;;;;2.50;1.90;;;;;;;;;;4898711;29;20028;-70
2024/01/04 01:15:27;;;;;;;4.03;2.50;;;;;;;;;;4898617;29;20094;-70
2024/01/04 01:17:53;;;;;;;3.50;1.90;;;;;;;;;;4898463;29;20052;-70
2024/01/04 01:20:18;;;;;;;2.38;1.60;;;;;;;;;;4898381;29;20039;-69
2024/01/04 01:22:44;;;;;;;2.22;1.60;;;;;;;;;;4898425;29;20035;-69
2024/01/04 01:25:09;;;;;;;3.13;2.00;;;;;;;;;;4898439;29;20025;-69
2024/01/04 01:27:35;;;;;;;1.73;1.60;;;;;;;;;;4898376;29;20067;-69
2024/01/04 01:30:00;;;;;;;2.25;1.77;;;;;;;;;;4898558;29;20029;-69
2024/01/04 01:32:26;;;;;;;1.60;1.40;;;;;;;;;;4898195;29;20447;-69
2024/01/04 01:34:52;;;;;;;3.92;1.80;;;;;;;;;;4898222;29;20121;-70
2024/01/04 01:37:17;;;;;;;3.28;1.90;;;;;;;;;;4898167;29;20056;-69
2024/01/04 01:39:43;;;;;;;3.13;2.05;;;;;;;;;;4898077;29;20100;-69
2024/01/04 01:42:08;;;;;;;2.13;1.58;;;;;;;;;;4898577;29;20028;-69
2024/01/04 09:23:19;;;;;;;1.83;1.50;;;;;;;;;;4979548;23;20054;-73
2024/01/04 09:25:45;;;;;;;1.48;1.38;;;;;;;;;;4916057;29;20034;-74
2024/01/04 09:28:10;;;;;;;2.03;1.67;;;;;;;;;;4897908;29;20028;-74
2024/01/04 09:30:36;;;;;;;2.55;1.60;;;;;;;;;;4912883;29;20020;-74
2024/01/04 09:33:02;;;;;;;1.63;1.50;;;;;;;;;;4916301;29;20032;-74
2024/01/04 09:35:27;;;;;;;1.98;1.50;;;;;;;;;;4912149;29;20028;-73
2024/01/04 09:37:53;;;;;;;2.25;1.73;;;;;;;;;;4912947;29;20035;-74
2024/01/04 09:40:21;;;;;;;1.42;1.33;;;;;;;;;;4913458;29;20106;-74
2024/01/04 09:42:48;;;;;;;1.85;1.45;;;;;;;;;;4914410;29;20028;-75
2024/01/04 09:45:15;;;;;;;2.13;1.40;;;;;;;;;;4916996;29;20115;-73
2024/01/04 09:47:42;;;;;;;1.55;1.45;;;;;;;;;;4917442;29;20481;-74
2024/01/04 09:50:11;;;;;;;1.60;1.50;;;;;;;;;;4916982;29;20152;-72
2024/01/04 09:52:39;;;;;;;2.17;1.50;;;;;;;;;;4916913;29;20020;-73
2024/01/04 09:55:09;;;;;;;2.25;1.63;;;;;;;;;;4917180;29;20036;-73
2024/01/04 09:57:34;;;;;;;1.70;1.50;;;;;;;;;;4917091;29;20397;-75
2024/01/04 10:00:00;;;;;;;1.63;1.52;;;;;;;;;;4917904;29;20043;-76
2024/01/04 10:02:25;;;;;;;1.58;1.48;;;;;;;;;;4917314;29;20032;-75
2024/01/04 10:04:51;;;;;;;1.42;1.33;;;;;;;;;;4916885;29;20028;-73
2024/01/04 10:07:24;;;;;;;1.70;1.60;;;;;;;;;;4916639;29;20031;-73
2024/01/04 10:10:00;;;;;;;1.70;1.60;;;;;;;;;;4913848;29;20032;-72
2024/01/04 10:12:30;;;;;;;1.50;1.40;;;;;;;;;;4914551;29;20055;-74
2024/01/04 10:14:56;;;;;;;2.00;1.75;;;;;;;;;;4914570;29;20035;-72
2024/01/04 10:17:22;;;;;;;1.63;1.52;;;;;;;;;;4915139;29;20028;-75
2024/01/04 10:19:47;;;;;;;2.42;1.70;;;;;;;;;;4913857;29;20381;-75
2024/01/04 10:22:15;;;;;;;1.45;1.35;;;;;;;;;;4912196;29;20366;-73
2024/01/04 10:24:41;;;;;;;1.30;1.20;;;;;;;;;;4913526;29;20052;-76
2024/01/04 10:27:08;;;;;;;1.83;1.30;;;;;;;;;;4915649;29;20024;-73
2024/01/04 10:29:35;;;;;;;1.95;1.50;;;;;;;;;;4922190;29;20043;-77
2024/01/04 10:32:11;;;;;;;3.17;1.70;;;;;;;;;;4919364;29;20027;-74
2024/01/04 10:34:38;;;;;;;1.40;1.30;;;;;;;;;;4913147;29;20087;-75
2024/01/04 10:37:16;;;;;;;1.55;1.45;;;;;;;;;;4913465;29;20075;-73
2024/01/04 10:39:46;;;;;;;2.33;1.65;;;;;;;;;;4914630;29;20156;-73
2024/01/04 10:42:13;;;;;;;1.45;1.35;;;;;;;;;;4914975;29;20155;-74
2024/01/04 10:44:39;;;;;;;1.60;1.50;;;;;;;;;;4916094;29;20043;-75
2024/01/04 10:47:05;;;;;;;2.40;1.73;;;;;;;;;;4918627;29;20020;-76
2024/01/04 10:49:31;;;;;;;2.08;1.55;;;;;;;;;;4918925;29;20057;-74
2024/01/04 10:51:58;;;;;;;1.48;1.38;;;;;;;;;;4917849;29;20056;-73
2024/01/04 10:54:34;;;;;;;1.48;1.38;;;;;;;;;;4916606;29;20103;-77
2024/01/04 10:57:02;;;;;;;1.40;1.30;;;;;;;;;;4921005;29;20027;-78
2024/01/04 10:59:29;;;;;;;2.13;1.60;;;;;;;;;;4917766;29;20049;-77
2024/01/04 11:01:59;;;;;;;1.75;1.63;;;;;;;;;;4923889;29;20028;-77
2024/01/04 11:04:25;;;;;;;;;;;;;;;;;;4916399;29;20484;-72
2024/01/04 11:06:52;;;;;;;1.65;1.40;;;;;;;;;;4919457;29;19915;-77
2024/01/04 11:09:19;;;;;;;1.50;1.40;;;;;;;;;;4922597;29;20099;-72
2024/01/04 11:11:46;;;;;;;1.50;1.40;;;;;;;;;;4918296;29;20031;-72
2024/01/04 11:14:11;;;;;;;1.42;1.33;;;;;;;;;;4917851;29;20032;-72
2024/01/04 11:16:59;;;;;;;1.52;1.42;;;;;;;;;;4901579;29;20031;-73
2024/01/04 11:19:59;;;;;;;1.67;1.50;;;;;;;;;;4918604;29;20031;-72
2024/01/04 11:22:43;;;;;;;1.90;1.60;;;;;;;;;;4918234;29;20024;-73
2024/01/04 11:25:40;;;;;;;1.85;1.60;;;;;;;;;;4915536;29;20492;-74
2024/01/04 11:28:07;;;;;;;2.30;1.80;;;;;;;;;;4899679;29;20032;-73
2024/01/04 11:30:33;;;;;;;1.60;1.40;;;;;;;;;;4918338;29;20050;-73
2024/01/04 11:32:59;;;;;;;2.92;1.40;;;;;;;;;;4918236;29;20469;-74
2024/01/04 11:35:25;;;;;;;1.58;1.45;;;;;;;;;;4918048;29;20031;-74
2024/01/04 11:37:51;;;;;;;1.60;1.40;;;;;;;;;;4917262;29;20020;-73
2024/01/04 11:40:26;;;;;;;1.55;1.45;;;;;;;;;;4919251;29;20503;-65
2024/01/04 11:42:51;;;;;;;2.75;1.60;;;;;;;;;;4919211;29;20032;-68
2024/01/04 11:45:18;;;;;;;1.85;1.55;;;;;;;;;;4919031;29;20384;-68
2024/01/04 11:47:46;;;;;;;1.58;1.48;;;;;;;;;;4918956;29;20396;-69
2024/01/04 11:50:30;;;;;;;5.63;1.60;;;;;;;;;;4918918;29;20028;-69
2024/01/04 11:53:06;;;;;;;1.70;1.38;;;;;;;;;;4919259;29;20020;-67
2024/01/04 11:55:33;;;;;;;6.05;1.90;;;;;;;;;;4917917;29;20552;-69
2024/01/04 11:58:08;;;;;;;4.88;1.90;;;;;;;;;;4900739;29;20481;-68
2024/01/04 12:00:36;;;;;;;3.05;1.85;;;;;;;;;;4918736;29;20024;-68
2024/01/04 12:03:11;;;;;;;5.70;1.65;;;;;;;;;;4918350;29;20385;-67
2024/01/04 12:05:37;;;;;;;1.92;1.75;;;;;;;;;;4917715;29;20059;-67
2024/01/04 12:08:03;;;;;;;2.08;1.75;;;;;;;;;;4917792;29;20083;-67
2024/01/04 12:10:28;;;;;;;4.10;1.73;;;;;;;;;;4918599;29;20024;-67
2024/01/04 12:12:54;;;;;;;2.83;1.80;;;;;;;;;;4918654;29;20028;-67
2024/01/04 12:15:20;;;;;;;2.05;1.55;;;;;;;;;;4918387;29;20457;-67
2024/01/04 12:17:45;;;;;;;1.70;1.40;;;;;;;;;;4918003;29;20063;-67
2024/01/04 12:20:12;;;;;;;3.80;1.60;;;;;;;;;;4918530;29;20055;-67
2024/01/04 12:22:41;;;;;;;2.45;1.77;;;;;;;;;;4901734;29;20042;-67
2024/01/04 12:25:07;;;;;;;4.22;1.92;;;;;;;;;;4918241;29;20056;-67
2024/01/04 12:27:36;;;;;;;5.45;1.88;;;;;;;;;;4918419;29;20040;-67
2024/01/04 12:30:10;;;;;;;4.07;2.13;;;;;;;;;;4918392;29;20095;-67
2024/01/04 12:32:38;;;;;;;3.22;1.92;;;;;;;;;;4918375;29;20028;-68
2024/01/04 12:35:05;;;;;;;2.45;1.98;;;;;;;;;;4918296;29;20031;-68
2024/01/04 12:37:31;;;;;;;3.92;1.83;;;;;;;;;;4918258;29;20107;-68
2024/01/04 12:40:06;;;;;;;2.58;1.95;;;;;;;;;;4918244;29;20103;-67
2024/01/04 12:42:34;;;;;;;2.20;1.90;;;;;;;;;;4918397;29;20020;-68
2024/01/04 12:44:59;;;;;;;5.70;2.50;;;;;;;;;;4918326;29;20036;-67
2024/01/04 12:47:25;;;;;;;2.35;2.00;;;;;;;;;;4918078;29;20028;-67
2024/01/04 12:49:55;;;;;;;2.78;2.05;;;;;;;;;;4917906;29;20059;-68
2024/01/04 12:52:21;;;;;;;2.28;1.67;;;;;;;;;;4918005;29;20062;-68
2024/01/04 12:54:47;;;;;;;3.53;1.80;;;;;;;;;;4917919;29;20064;-68
2024/01/04 12:57:13;;;;;;;4.65;2.28;;;;;;;;;;4917948;29;20111;-68
2024/01/04 12:59:39;;;;;;;5.45;2.10;;;;;;;;;;4917776;29;20032;-68
2024/01/04 13:02:05;;;;;;;2.47;2.10;;;;;;;;;;4917988;29;20020;-67
2024/01/04 13:04:31;;;;;;;3.25;2.15;;;;;;;;;;4917660;29;20062;-67
2024/01/04 13:06:57;;;;;;;2.67;2.17;;;;;;;;;;4917776;29;20059;-67
2024/01/04 13:09:22;;;;;;;3.03;2.13;;;;;;;;;;4917772;29;20496;-68
2024/01/04 13:11:48;;;;;;;2.20;2.00;;;;;;;;;;4917643;29;20039;-68
2024/01/04 13:14:13;;;;;;;3.40;1.83;;;;;;;;;;4917828;29;20024;-70
2024/01/04 13:16:39;;;;;;;9.07;2.17;;;;;;;;;;4917482;29;20479;-68
2024/01/04 13:19:05;;;;;;;10.95;2.38;;;;;;;;;;4917481;29;20044;-69
2024/01/04 13:21:31;;;;;;;3.03;2.00;;;;;;;;;;4912497;29;20032;-70
2024/01/04 13:23:57;;;;;;;5.63;2.40;;;;;;;;;;4915545;29;20052;-68
2024/01/04 13:26:22;;;;;;;3.42;2.15;;;;;;;;;;4915658;29;20516;-68
2024/01/04 13:28:48;;;;;;;4.32;2.22;;;;;;;;;;4915294;29;20397;-68
2024/01/04 13:31:13;;;;;;;3.65;2.20;;;;;;;;;;4916652;29;20060;-68
2024/01/04 13:33:39;;;;;;;3.83;2.22;;;;;;;;;;4916287;29;20395;-68
2024/01/04 13:36:05;;;;;;;3.50;1.98;;;;;;;;;;4916283;29;20326;-67
2024/01/04 13:38:31;;;;;;;5.85;2.30;;;;;;;;;;4915804;29;20024;-67
2024/01/04 13:40:56;;;;;;;2.88;2.30;;;;;;;;;;4916951;29;20414;-68
2024/01/04 13:43:22;;;;;;;5.55;2.55;;;;;;;;;;4916537;29;20496;-68
2024/01/04 13:45:51;;;;;;;4.18;2.40;;;;;;;;;;4915388;29;20035;-68
2024/01/04 13:48:17;;;;;;;5.95;2.58;;;;;;;;;;4916142;29;20111;-67
2024/01/04 13:50:45;;;;;;;3.10;2.53;;;;;;;;;;4916647;29;20029;-67
2024/01/04 13:53:12;;;;;;;3.78;2.53;;;;;;;;;;4916800;29;20035;-67
2024/01/04 13:55:38;;;;;;;3.67;2.60;;;;;;;;;;4916550;29;20031;-67
2024/01/04 13:58:05;;;;;;;5.35;3.28;;;;;;;;;;4916515;29;20035;-67
2024/01/04 14:00:33;;;;;;;5.32;2.80;;;;;;;;;;4916724;29;20024;-67
2024/01/04 14:03:02;;;;;;;4.30;2.40;;;;;;;;;;4916709;29;20489;-67
2024/01/04 14:05:28;;;;;;;5.77;3.30;;;;;;;;;;4916674;29;20028;-67
2024/01/04 14:07:54;;;;;;;3.80;3.05;;;;;;;;;;4916958;29;20470;-68
2024/01/04 14:10:19;;;;;;;2.95;2.58;;;;;;;;;;4916588;29;20104;-67
2024/01/04 14:12:45;;;;;;;4.57;2.78;;;;;;;;;;4916467;29;20031;-67
2024/01/04 14:15:11;;;;;;;6.15;2.80;;;;;;;;;;4916775;29;20095;-68
2024/01/04 14:17:39;;;;;;;3.65;2.70;;;;;;;;;;4916588;29;20031;-68
2024/01/04 14:20:09;;;;;;;4.43;2.85;;;;;;;;;;4916486;29;20258;-67
2024/01/04 14:22:35;;;;;;;4.05;2.72;;;;;;;;;;4916518;29;20032;-67
2024/01/04 14:25:02;;;;;;;3.85;2.92;;;;;;;;;;4916059;29;20443;-67
2024/01/04 14:27:27;;;;;;;5.25;3.05;;;;;;;;;;4916709;29;20024;-68
2024/01/04 14:29:53;;;;;;;5.45;3.08;;;;;;;;;;4916413;29;20043;-67
2024/01/04 14:32:19;;;;;;;4.60;2.55;;;;;;;;;;4916258;29;20079;-67
2024/01/04 14:34:45;;;;;;;3.22;2.42;;;;;;;;;;4916299;29;20516;-67
2024/01/04 14:37:11;;;;;;;3.42;2.78;;;;;;;;;;4916353;29;20026;-68
2024/01/04 14:39:39;;;;;;;4.93;2.65;;;;;;;;;;4915505;29;20024;-67
2024/01/04 14:42:05;;;;;;;3.80;2.40;;;;;;;;;;4916220;29;20119;-67
2024/01/04 14:44:32;;;;;;;4.05;2.30;;;;;;;;;;4916379;29;20114;-68
2024/01/04 14:46:58;;;;;;;3.08;2.60;;;;;;;;;;4899456;29;20028;-67
2024/01/04 14:49:25;;;;;;;3.55;2.55;;;;;;;;;;4916477;29;20183;-67
2024/01/04 14:51:51;;;;;;;3.25;2.53;;;;;;;;;;4916188;29;20056;-67
2024/01/04 14:54:17;;;;;;;4.50;2.88;;;;;;;;;;4916160;29;20078;-67
2024/01/04 14:56:43;;;;;;;4.65;2.95;;;;;;;;;;4916435;29;20035;-67
2024/01/04 14:59:08;;;;;;;4.63;3.03;;;;;;;;;;4916152;29;20024;-67
2024/01/04 15:01:34;;;;;;;3.53;2.72;;;;;;;;;;4916063;29;20033;-67
2024/01/04 15:04:00;;;;;;;5.05;2.72;;;;;;;;;;4916019;29;20028;-67
2024/01/04 15:06:26;;;;;;;3.75;2.40;;;;;;;;;;4916069;29;20103;-68
2024/01/04 15:08:52;;;;;;;3.30;2.67;;;;;;;;;;4898997;29;20111;-67
2024/01/04 15:11:19;;;;;;;5.63;2.70;;;;;;;;;;4915939;29;20043;-67
2024/01/04 15:13:45;;;;;;;5.47;2.80;;;;;;;;;;4913221;29;20085;-69
2024/01/04 15:16:10;;;;;;;3.78;3.05;;;;;;;;;;4912387;29;20036;-68
2024/01/04 15:18:37;;;;;;;5.47;2.83;;;;;;;;;;4910044;29;20024;-68
2024/01/04 15:21:03;;;;;;;4.63;2.75;;;;;;;;;;4915963;29;20600;-68
2024/01/04 15:23:28;;;;;;;5.18;2.70;;;;;;;;;;4915563;29;20064;-68
2024/01/04 15:25:54;;;;;;;4.47;2.78;;;;;;;;;;4914380;29;20033;-68
2024/01/04 15:28:21;;;;;;;6.95;2.72;;;;;;;;;;4915982;29;20035;-69
2024/01/04 15:30:47;;;;;;;3.70;2.85;;;;;;;;;;4915732;29;20035;-68
2024/01/04 15:33:13;;;;;;;4.70;2.92;;;;;;;;;;4915855;29;20028;-69
2024/01/04 15:35:39;;;;;;;7.82;3.30;;;;;;;;;;4915798;29;20495;-69
2024/01/04 15:38:04;;;;;;;5.50;3.20;;;;;;;;;;4911744;29;20028;-69
2024/01/04 15:40:30;;;;;;;4.93;2.85;;;;;;;;;;4905634;29;20036;-68
2024/01/04 15:42:56;;;;;;;5.78;3.17;;;;;;;;;;4907471;29;20115;-71
2024/01/04 15:45:23;;;;;;;5.75;3.30;;;;;;;;;;4909268;29;20032;-70
2024/01/04 15:47:50;;;;;;;5.22;2.97;;;;;;;;;;4915216;29;20474;-70
2024/01/04 15:50:16;;;;;;;5.00;3.50;;;;;;;;;;4899312;29;20397;-69
2024/01/04 15:52:42;;;;;;;11.20;3.45;;;;;;;;;;4919049;29;20028;-72
2024/01/04 15:55:09;;;;;;;4.57;3.65;;;;;;;;;;4919068;29;20036;-69
2024/01/04 15:57:35;;;;;;;8.70;5.00;;;;;;;;;;4916338;29;20060;-73
2024/01/04 16:00:00;;;;;;;8.45;4.60;;;;;;;;;;4914826;29;20052;-72
2024/01/04 16:02:26;;;;;;;7.47;4.85;;;;;;;;;;4909282;29;20074;-72
2024/01/04 16:04:52;;;;;;;13.73;5.35;;;;;;;;;;4909922;29;20063;-70
2024/01/04 16:07:17;;;;;;;6.28;4.68;;;;;;;;;;4915889;29;20404;-71
2024/01/04 16:09:43;;;;;;;8.82;4.60;;;;;;;;;;4917489;29;20095;-72
2024/01/04 16:12:08;;;;;;;8.05;4.32;;;;;;;;;;4918565;29;20025;-71
2024/01/04 16:14:35;;;;;;;7.88;4.22;;;;;;;;;;4918654;29;20100;-71
2024/01/04 16:17:00;;;;;;;7.53;4.43;;;;;;;;;;4918555;29;20056;-72
2024/01/04 16:19:26;;;;;;;6.78;4.43;;;;;;;;;;4918714;29;20066;-70
2024/01/04 16:21:51;;;;;;;9.63;4.80;;;;;;;;;;4918661;29;20020;-71
2024/01/04 16:24:17;;;;;;;6.30;4.25;;;;;;;;;;4914652;29;20048;-73
2024/01/04 16:26:43;;;;;;;8.25;5.25;;;;;;;;;;4915917;29;20028;-71
2024/01/04 16:29:08;;;;;;;8.00;5.18;;;;;;;;;;4918227;29;20024;-72
2024/01/04 16:31:35;;;;;;;8.27;5.10;;;;;;;;;;4918273;29;20026;-72
2024/01/04 16:34:01;;;;;;;10.85;5.63;;;;;;;;;;4916804;29;20035;-72
2024/01/04 16:36:27;;;;;;;12.00;6.35;;;;;;;;;;4917084;29;20024;-71
2024/01/04 16:38:53;;;;;;;9.50;5.95;;;;;;;;;;4918154;29;20108;-70
2024/01/04 16:41:18;;;;;;;13.30;6.07;;;;;;;;;;4918004;29;20028;-70
2024/01/04 16:43:44;;;;;;;11.18;6.47;;;;;;;;;;4914960;29;20393;-69
2024/01/04 16:46:10;;;;;;;12.30;6.57;;;;;;;;;;4918012;29;20032;-72
2024/01/04 16:48:36;;;;;;;12.20;6.72;;;;;;;;;;4917910;29;20024;-74
2024/01/04 16:51:01;;;;;;;11.63;6.03;;;;;;;;;;4917949;29;20063;-74
2024/01/04 16:53:27;;;;;;;10.43;6.47;;;;;;;;;;4917909;29;20056;-73
2024/01/04 16:55:52;;;;;;;13.57;7.32;;;;;;;;;;4917739;29;20469;-73
2024/01/04 16:58:18;;;;;;;18.25;9.20;;;;;;;;;;4918081;29;20449;-73
2024/01/04 17:00:44;;;;;;;26.95;10.90;;;;;;;;;;4917806;29;20362;-73
2024/01/04 17:03:10;;;;;;;26.55;9.95;;;;;;;;;;4916989;29;20107;-72
2024/01/04 17:05:36;;;;;;;26.50;9.10;;;;;;;;;;4917714;29;20039;-73
2024/01/04 17:08:05;;;;;;;16.13;7.78;;;;;;;;;;4917715;29;20020;-73
2024/01/04 17:10:38;;;;;;;18.95;8.32;;;;;;;;;;4915884;29;20500;-72
2024/01/04 17:13:11;;;;;;;14.50;8.10;;;;;;;;;;4901158;29;20217;-71
2024/01/04 17:15:37;;;;;;;17.95;8.00;;;;;;;;;;4898584;29;20029;-72
2024/01/04 17:18:03;;;;;;;13.68;8.18;;;;;;;;;;4898625;29;20036;-72
2024/01/04 17:20:31;;;;;;;14.00;7.80;;;;;;;;;;4898478;29;20134;-71
2024/01/04 17:22:57;;;;;;;12.18;7.70;;;;;;;;;;4898711;29;20044;-72
2024/01/04 17:25:23;;;;;;;14.73;7.63;;;;;;;;;;4898259;29;20044;-72
2024/01/04 17:27:49;;;;;;;12.60;7.22;;;;;;;;;;4898453;29;20111;-71
2024/01/04 17:30:19;;;;;;;14.05;7.50;;;;;;;;;;4898225;29;20032;-72
2024/01/04 17:32:46;;;;;;;10.70;6.63;;;;;;;;;;4898386;29;20029;-70
2024/01/04 17:35:11;;;;;;;12.30;5.95;;;;;;;;;;4906687;29;20020;-71
2024/01/04 17:37:38;;;;;;;18.85;6.70;;;;;;;;;;4916017;29;20032;-73
2024/01/04 17:40:04;;;;;;;17.45;7.22;;;;;;;;;;4914542;29;20051;-70
2024/01/04 17:42:30;;;;;;;283.77;22.15;;;;;;;;;;4912973;29;20107;-73
2024/01/04 17:44:56;;;;;;;144.70;14.90;;;;;;;;;;4906269;29;20107;-71
2024/01/04 17:47:22;;;;;;;86.38;11.10;;;;;;;;;;4902153;29;20119;-71
2024/01/04 17:49:47;;;;;;;39.28;7.78;;;;;;;;;;4898195;29;20120;-73
2024/01/04 17:52:18;;;;;;;25.67;6.78;;;;;;;;;;4906365;29;20036;-73
2024/01/04 17:54:45;;;;;;;22.40;7.78;;;;;;;;;;4911026;29;20032;-73
2024/01/04 17:57:13;;;;;;;17.45;8.98;;;;;;;;;;4902992;29;20121;-72
2024/01/04 17:59:39;;;;;;;17.13;7.40;;;;;;;;;;4897939;29;20462;-72
2024/01/04 18:02:05;;;;;;;22.00;8.57;;;;;;;;;;4897752;29;20497;-72
2024/01/04 18:04:32;;;;;;;28.25;8.50;;;;;;;;;;4881066;29;20489;-71
2024/01/04 18:06:57;;;;;;;26.48;8.48;;;;;;;;;;4897963;29;20490;-73
2024/01/04 18:09:23;;;;;;;17.15;8.32;;;;;;;;;;4902670;29;20087;-73
2024/01/04 18:11:49;;;;;;;28.80;8.40;;;;;;;;;;4904843;29;20028;-73
2024/01/04 18:14:15;;;;;;;27.85;7.82;;;;;;;;;;4906518;29;20036;-72
2024/01/04 18:16:41;;;;;;;21.30;7.70;;;;;;;;;;4906899;29;20036;-73
2024/01/04 18:19:07;;;;;;;23.10;7.32;;;;;;;;;;4905138;29;20051;-72
2024/01/04 18:21:33;;;;;;;22.52;7.53;;;;;;;;;;4903502;29;20384;-73
2024/01/04 18:23:58;;;;;;;19.35;7.40;;;;;;;;;;4905922;29;20048;-73
2024/01/04 18:26:26;;;;;;;20.45;7.60;;;;;;;;;;4907347;29;20028;-72
2024/01/04 18:28:52;;;;;;;20.75;8.00;;;;;;;;;;4912364;29;20028;-72
2024/01/04 18:31:20;;;;;;;20.70;7.72;;;;;;;;;;4916185;29;20072;-72
2024/01/04 18:33:50;;;;;;;17.80;7.40;;;;;;;;;;4908564;29;20449;-72
2024/01/04 18:36:17;;;;;;;23.67;7.75;;;;;;;;;;4907433;29;20071;-72
2024/01/04 18:38:43;;;;;;;18.17;7.60;;;;;;;;;;4908669;29;20028;-73
2024/01/04 18:41:10;;;;;;;19.23;7.20;;;;;;;;;;4908248;29;20036;-71
2024/01/04 18:43:36;;;;;;;15.95;6.80;;;;;;;;;;4904701;29;20036;-74
2024/01/04 18:46:02;;;;;;;21.90;7.43;;;;;;;;;;4907798;29;20052;-73
2024/01/04 18:48:28;;;;;;;17.70;7.80;;;;;;;;;;4906445;29;20035;-73
2024/01/04 18:50:53;;;;;;;21.55;6.88;;;;;;;;;;4907030;29;20029;-73
2024/01/04 18:53:19;;;;;;;17.48;6.97;;;;;;;;;;4905504;29;20492;-73
2024/01/04 18:55:44;;;;;;;18.08;7.72;;;;;;;;;;4905692;29;20485;-72
2024/01/04 18:58:10;;;;;;;18.27;7.28;;;;;;;;;;4903904;29;20040;-74
2024/01/04 19:00:36;;;;;;;16.02;6.88;;;;;;;;;;4908831;29;20122;-73
2024/01/04 19:03:01;;;;;;;15.77;7.05;;;;;;;;;;4914393;29;20025;-72
2024/01/04 19:05:27;;;;;;;20.85;6.90;;;;;;;;;;4914351;29;20051;-73
2024/01/04 19:07:52;;;;;;;12.48;6.60;;;;;;;;;;4904128;29;20035;-73
2024/01/04 19:10:18;;;;;;;18.13;8.07;;;;;;;;;;4905504;29;20736;-72
2024/01/04 19:12:44;;;;;;;24.05;7.50;;;;;;;;;;4900425;29;20043;-72
2024/01/04 19:15:09;;;;;;;15.15;6.22;;;;;;;;;;4903945;29;20107;-73
2024/01/04 19:17:36;;;;;;;11.38;6.63;;;;;;;;;;4914332;29;20043;-73
2024/01/04 19:20:09;;;;;;;13.68;6.43;;;;;;;;;;4914390;29;20121;-72
2024/01/04 19:22:37;;;;;;;17.13;6.45;;;;;;;;;;4914362;29;20044;-73
2024/01/04 19:25:04;;;;;;;10.50;6.32;;;;;;;;;;4914613;29;20048;-73
2024/01/04 19:27:30;;;;;;;14.02;6.72;;;;;;;;;;4914991;29;20040;-72
2024/01/04 19:29:56;;;;;;;18.13;6.53;;;;;;;;;;4907530;29;20059;-71
2024/01/04 19:32:22;;;;;;;18.33;7.45;;;;;;;;;;4910148;29;20104;-73
2024/01/04 19:34:48;;;;;;;14.27;6.90;;;;;;;;;;4907046;29;20072;-73
2024/01/04 19:37:14;;;;;;;15.00;7.18;;;;;;;;;;4906314;29;20444;-73
2024/01/04 19:39:40;;;;;;;20.30;6.57;;;;;;;;;;4898725;29;20024;-73
2024/01/04 19:42:05;;;;;;;16.17;6.00;;;;;;;;;;4899143;29;20394;-72
2024/01/04 19:44:31;;;;;;;18.15;6.05;;;;;;;;;;4898725;29;20035;-73
2024/01/04 19:46:56;;;;;;;15.50;6.55;;;;;;;;;;4898805;29;20043;-72
2024/01/04 19:49:22;;;;;;;14.88;6.22;;;;;;;;;;4898676;29;20056;-73
2024/01/04 19:51:48;;;;;;;11.50;6.60;;;;;;;;;;4898692;29;20100;-73
2024/01/04 19:54:16;;;;;;;14.02;6.32;;;;;;;;;;4898583;29;20039;-73
2024/01/04 19:56:41;;;;;;;14.98;6.50;;;;;;;;;;4898593;29;20025;-73
2024/01/04 19:59:07;;;;;;;14.55;6.82;;;;;;;;;;4916267;29;20067;-75
2024/01/04 20:01:33;;;;;;;14.95;6.45;;;;;;;;;;4917273;29;20107;-74
2024/01/04 20:04:01;;;;;;;10.68;5.95;;;;;;;;;;4917373;29;20024;-73
2024/01/04 20:06:27;;;;;;;11.55;6.15;;;;;;;;;;4917270;29;20056;-73
2024/01/04 20:08:52;;;;;;;15.32;6.63;;;;;;;;;;4917272;29;20055;-73
2024/01/04 20:11:19;;;;;;;10.07;6.32;;;;;;;;;;4917201;29;20036;-73
2024/01/04 20:13:44;;;;;;;13.65;6.47;;;;;;;;;;4917241;29;20662;-73
2024/01/04 20:16:14;;;;;;;138.98;15.55;;;;;;;;;;4917100;29;20032;-72
2024/01/04 20:18:40;;;;;;;39.55;8.48;;;;;;;;;;4917089;29;20043;-72
2024/01/04 20:21:06;;;;;;;15.80;6.35;;;;;;;;;;4916996;29;20028;-71
2024/01/04 20:23:31;;;;;;;22.55;6.78;;;;;;;;;;4916743;29;20048;-72
2024/01/04 20:25:57;;;;;;;24.73;6.93;;;;;;;;;;4909119;29;20032;-71
2024/01/04 20:28:23;;;;;;;47.55;7.13;;;;;;;;;;4897947;29;20075;-73
2024/01/04 20:30:48;;;;;;;41.55;7.95;;;;;;;;;;4910030;29;20809;-72
2024/01/04 20:33:14;;;;;;;37.05;8.07;;;;;;;;;;4916811;29;20041;-73
2024/01/04 20:35:39;;;;;;;27.33;6.82;;;;;;;;;;4917064;29;20028;-73
2024/01/04 20:38:05;;;;;;;38.28;8.70;;;;;;;;;;4915933;29;20601;-74
2024/01/04 20:40:30;;;;;;;26.55;6.85;;;;;;;;;;4916573;29;20485;-73
2024/01/04 20:42:56;;;;;;;35.53;7.63;;;;;;;;;;4902340;29;20398;-75
2024/01/04 20:45:22;;;;;;;25.17;6.85;;;;;;;;;;4897569;29;20081;-74
2024/01/04 20:47:48;;;;;;;29.80;7.30;;;;;;;;;;4897968;29;20039;-75
2024/01/04 20:50:14;;;;;;;20.55;5.82;;;;;;;;;;4898962;29;20544;-74
2024/01/04 20:52:40;;;;;;;24.60;6.88;;;;;;;;;;4899353;29;20029;-74
2024/01/04 20:55:07;;;;;;;16.23;5.80;;;;;;;;;;4899117;29;20037;-74
2024/01/04 20:57:33;;;;;;;25.98;7.55;;;;;;;;;;4898888;29;20033;-73
2024/01/04 20:59:58;;;;;;;23.73;7.45;;;;;;;;;;4899137;29;20024;-74
2024/01/04 21:02:24;;;;;;;24.45;7.13;;;;;;;;;;4898929;29;20047;-75
2024/01/04 21:04:52;;;;;;;32.00;8.13;;;;;;;;;;4898750;29;20039;-75
2024/01/04 21:07:18;;;;;;;25.60;5.78;;;;;;;;;;4899099;29;20482;-74
2024/01/04 21:09:44;;;;;;;16.63;6.68;;;;;;;;;;4898771;29;20036;-75
2024/01/04 21:12:09;;;;;;;21.17;6.80;;;;;;;;;;4898728;29;20035;-74
2024/01/04 21:14:35;;;;;;;23.13;5.88;;;;;;;;;;4898665;29;20042;-73
2024/01/04 21:17:00;;;;;;;19.85;6.55;;;;;;;;;;4901361;29;20363;-72
2024/01/04 21:19:26;;;;;;;19.88;5.65;;;;;;;;;;4903092;29;20622;-74
2024/01/04 21:21:51;;;;;;;20.70;6.47;;;;;;;;;;4898583;29;20437;-72
2024/01/04 21:24:17;;;;;;;13.90;6.95;;;;;;;;;;4898298;29;20561;-73
2024/01/04 21:26:42;;;;;;;17.83;6.07;;;;;;;;;;4898470;29;20104;-74
2024/01/04 21:29:08;;;;;;;16.58;6.53;;;;;;;;;;4898407;29;20410;-74
2024/01/04 21:31:33;;;;;;;16.75;6.32;;;;;;;;;;4898278;29;20047;-74
2024/01/04 21:33:59;;;;;;;17.77;6.18;;;;;;;;;;4898445;29;20493;-71
2024/01/04 21:36:25;;;;;;;18.30;6.55;;;;;;;;;;4898536;29;20104;-73
2024/01/04 21:38:53;;;;;;;20.13;6.18;;;;;;;;;;4898248;29;20537;-73
2024/01/04 21:41:19;;;;;;;20.35;6.55;;;;;;;;;;4898264;29;20112;-69
2024/01/04 21:43:44;;;;;;;21.02;7.45;;;;;;;;;;4898073;29;20060;-73
2024/01/04 21:46:16;;;;;;;19.33;5.85;;;;;;;;;;4898006;29;20039;-74
2024/01/04 21:48:42;;;;;;;17.05;5.85;;;;;;;;;;4897791;29;20490;-73
2024/01/04 21:51:16;;;;;;;15.43;5.90;;;;;;;;;;4898257;29;20032;-72
2024/01/04 21:53:47;;;;;;;14.18;5.40;;;;;;;;;;4898902;29;20031;-73
2024/01/04 21:56:13;;;;;;;15.88;5.68;;;;;;;;;;4898043;29;20028;-72
2024/01/04 21:58:38;;;;;;;15.52;6.43;;;;;;;;;;4897842;29;20375;-74
2024/01/04 22:01:04;;;;;;;16.08;6.03;;;;;;;;;;4897767;29;20041;-73
2024/01/04 22:03:29;;;;;;;17.63;6.22;;;;;;;;;;4897740;29;20021;-71
2024/01/04 22:05:55;;;;;;;15.70;6.10;;;;;;;;;;4897983;29;20036;-72
2024/01/04 22:08:21;;;;;;;17.25;6.03;;;;;;;;;;4907970;29;20422;-72
2024/01/04 22:10:47;;;;;;;18.40;5.53;;;;;;;;;;4899469;29;20090;-72
2024/01/04 22:13:16;;;;;;;19.05;6.53;;;;;;;;;;4916644;29;20063;-74